Terminal Aerodrome Forecast
Issued by NWS

Home | Current Version | Previous Version | Text Only | Print | Product List | Glossary On
Versions: 1 2 3 4 5 6 7 8 9 10 11 12 13 14 15 16 17
000
FTUS44 KLZK 221720
TAFHOT
TAF
KHOT 221720Z 2218/2318 32010G18KT P6SM VCSH FEW009 BKN015 OVC025
     FM222000 29012KT P6SM OVC035
     FM230300 VRB04KT P6SM VCFG OVC015
     FM231500 31009KT P6SM SCT015=

USA.gov is the U.S. government's official web portal to all federal, state and local government web resources and services.